sensor_id;sensor_type;location;lat;lon;timestamp;pressure;altitude;pressure_sealevel;temperature;humidity
7407;BME280;3745;56.964;24.128;2023-02-19T00:02:11;99429.56;;;2.05;100.00
7407;BME280;3745;56.964;24.128;2023-02-19T00:04:36;99278.78;;;1.25;100.00
7407;BME280;3745;56.964;24.128;2023-02-19T00:07:02;99540.94;;;2.68;100.00
7407;BME280;3745;56.964;24.128;2023-02-19T00:09:28;99288.84;;;1.28;100.00
7407;BME280;3745;56.964;24.128;2023-02-19T00:11:53;99516.66;;;2.61;100.00
7407;BME280;3745;56.964;24.128;2023-02-19T00:14:20;99520.03;;;2.63;100.00
7407;BME280;3745;56.964;24.128;2023-02-19T00:16:46;99428.91;;;2.12;100.00
7407;BME280;3745;56.964;24.128;2023-02-19T00:19:20;99540.00;;;2.63;100.00
7407;BME280;3745;56.964;24.128;2023-02-19T00:21:46;99407.34;;;1.81;100.00
7407;BME280;3745;56.964;24.128;2023-02-19T00:24:15;99467.22;;;2.14;100.00
7407;BME280;3745;56.964;24.128;2023-02-19T00:26:42;99399.81;;;1.80;100.00
7407;BME280;3745;56.964;24.128;2023-02-19T00:29:14;99338.03;;;1.35;100.00
7407;BME280;3745;56.964;24.128;2023-02-19T00:31:43;99284.09;;;1.06;100.00
7407;BME280;3745;56.964;24.128;2023-02-19T00:34:25;99458.03;;;2.13;100.00
7407;BME280;3745;56.964;24.128;2023-02-19T00:36:50;99449.03;;;2.18;100.00
7407;BME280;3745;56.964;24.128;2023-02-19T00:39:19;99384.78;;;1.77;100.00
7407;BME280;3745;56.964;24.128;2023-02-19T00:41:46;99274.44;;;1.18;100.00
7407;BME280;3745;56.964;24.128;2023-02-19T00:44:12;99492.91;;;2.44;100.00
7407;BME280;3745;56.964;24.128;2023-02-19T00:46:46;99273.56;;;1.16;100.00
7407;BME280;3745;56.964;24.128;2023-02-19T00:49:22;99323.94;;;1.37;100.00
7407;BME280;3745;56.964;24.128;2023-02-19T00:51:49;99533.16;;;2.56;100.00
7407;BME280;3745;56.964;24.128;2023-02-19T00:54:15;99534.13;;;2.61;100.00
7407;BME280;3745;56.964;24.128;2023-02-19T00:56:44;99440.34;;;2.04;100.00
7407;BME280;3745;56.964;24.128;2023-02-19T00:59:10;99384.69;;;1.74;100.00
7407;BME280;3745;56.964;24.128;2023-02-19T01:01:36;99316.25;;;1.30;100.00
7407;BME280;3745;56.964;24.128;2023-02-19T01:04:05;99455.59;;;2.16;100.00
7407;BME280;3745;56.964;24.128;2023-02-19T01:06:34;99401.66;;;1.87;100.00
7407;BME280;3745;56.964;24.128;2023-02-19T01:09:01;99305.22;;;1.20;100.00
7407;BME280;3745;56.964;24.128;2023-02-19T01:11:26;99497.69;;;2.35;100.00
7407;BME280;3745;56.964;24.128;2023-02-19T01:14:01;99535.00;;;2.63;100.00
7407;BME280;3745;56.964;24.128;2023-02-19T01:16:28;99462.44;;;2.23;100.00
7407;BME280;3745;56.964;24.128;2023-02-19T01:19:02;99460.59;;;2.16;100.00
7407;BME280;3745;56.964;24.128;2023-02-19T01:21:29;99392.03;;;1.68;100.00
7407;BME280;3745;56.964;24.128;2023-02-19T01:23:58;99404.66;;;1.74;100.00
7407;BME280;3745;56.964;24.128;2023-02-19T01:26:28;99472.03;;;2.08;100.00
7407;BME280;3745;56.964;24.128;2023-02-19T01:28:54;99556.28;;;2.49;100.00
7407;BME280;3745;56.964;24.128;2023-02-19T01:31:22;99536.31;;;2.49;100.00
7407;BME280;3745;56.964;24.128;2023-02-19T01:33:54;99535.44;;;2.47;100.00
7407;BME280;3745;56.964;24.128;2023-02-19T01:36:23;99394.13;;;1.52;100.00
7407;BME280;3745;56.964;24.128;2023-02-19T01:38:49;99555.69;;;2.58;100.00
7407;BME280;3745;56.964;24.128;2023-02-19T01:41:17;99330.47;;;1.32;100.00
7407;BME280;3745;56.964;24.128;2023-02-19T01:44:05;99438.44;;;1.94;100.00
7407;BME280;3745;56.964;24.128;2023-02-19T01:46:45;99455.31;;;2.04;100.00
7407;BME280;3745;56.964;24.128;2023-02-19T01:51:41;99401.13;;;1.66;100.00
7407;BME280;3745;56.964;24.128;2023-02-19T01:54:11;99374.25;;;1.55;100.00
7407;BME280;3745;56.964;24.128;2023-02-19T01:56:41;99443.31;;;1.91;100.00
7407;BME280;3745;56.964;24.128;2023-02-19T01:59:07;99465.03;;;1.95;100.00
7407;BME280;3745;56.964;24.128;2023-02-19T02:01:36;99316.56;;;1.09;100.00
7407;BME280;3745;56.964;24.128;2023-02-19T02:04:04;99384.00;;;1.46;100.00
7407;BME280;3745;56.964;24.128;2023-02-19T02:06:34;99290.16;;;0.84;100.00
7407;BME280;3745;56.964;24.128;2023-02-19T02:09:06;99436.09;;;1.69;100.00
7407;BME280;3745;56.964;24.128;2023-02-19T02:11:54;99529.03;;;2.24;100.00
7407;BME280;3745;56.964;24.128;2023-02-19T02:14:26;99446.06;;;1.69;100.00
7407;BME280;3745;56.964;24.128;2023-02-19T02:25:39;99565.78;;;2.31;100.00
7407;BME280;3745;56.964;24.128;2023-02-19T02:31:38;99568.19;;;2.27;100.00
7407;BME280;3745;56.964;24.128;2023-02-19T02:34:11;99310.56;;;0.73;100.00
7407;BME280;3745;56.964;24.128;2023-02-19T02:36:42;99527.66;;;2.04;100.00
7407;BME280;3745;56.964;24.128;2023-02-19T02:39:13;99450.66;;;1.53;100.00
7407;BME280;3745;56.964;24.128;2023-02-19T02:41:43;99549.56;;;2.15;100.00
7407;BME280;3745;56.964;24.128;2023-02-19T02:44:12;99546.25;;;2.15;100.00
7407;BME280;3745;56.964;24.128;2023-02-19T02:46:43;99461.72;;;1.63;100.00
7407;BME280;3745;56.964;24.128;2023-02-19T02:49:20;99565.63;;;2.25;100.00
7407;BME280;3745;56.964;24.128;2023-02-19T02:51:50;99299.44;;;0.62;100.00
7407;BME280;3745;56.964;24.128;2023-02-19T02:54:22;99313.84;;;0.72;100.00
7407;BME280;3745;56.964;24.128;2023-02-19T02:57:09;99579.00;;;2.27;100.00
7407;BME280;3745;56.964;24.128;2023-02-19T02:59:43;99575.53;;;2.22;100.00
7407;BME280;3745;56.964;24.128;2023-02-19T03:02:22;99424.13;;;1.26;100.00
7407;BME280;3745;56.964;24.128;2023-02-19T03:08:07;99580.34;;;2.16;100.00
7407;BME280;3745;56.964;24.128;2023-02-19T03:11:03;99558.31;;;2.00;100.00
7407;BME280;3745;56.964;24.128;2023-02-19T03:13:52;99606.94;;;2.14;100.00
7407;BME280;3745;56.964;24.128;2023-02-19T03:16:47;99601.06;;;2.12;100.00
7407;BME280;3745;56.964;24.128;2023-02-19T03:19:40;99592.03;;;2.17;100.00
7407;BME280;3745;56.964;24.128;2023-02-19T03:24:55;99488.56;;;1.43;100.00
7407;BME280;3745;56.964;24.128;2023-02-19T03:27:46;99333.50;;;0.63;100.00
7407;BME280;3745;56.964;24.128;2023-02-19T03:30:22;99601.94;;;2.14;100.00
7407;BME280;3745;56.964;24.128;2023-02-19T03:33:03;99596.94;;;2.14;100.00
7407;BME280;3745;56.964;24.128;2023-02-19T03:35:37;99579.94;;;2.01;100.00
7407;BME280;3745;56.964;24.128;2023-02-19T03:38:18;99568.28;;;2.00;100.00
7407;BME280;3745;56.964;24.128;2023-02-19T03:43:53;99429.59;;;1.14;100.00
7407;BME280;3745;56.964;24.128;2023-02-19T03:48:58;99595.06;;;2.07;100.00
7407;BME280;3745;56.964;24.128;2023-02-19T03:51:35;99471.31;;;1.21;100.00
7407;BME280;3745;56.964;24.128;2023-02-19T03:54:26;99608.38;;;2.06;100.00
7407;BME280;3745;56.964;24.128;2023-02-19T03:59:54;99632.38;;;2.02;100.00
7407;BME280;3745;56.964;24.128;2023-02-19T04:02:38;99614.88;;;2.01;100.00
7407;BME280;3745;56.964;24.128;2023-02-19T04:05:10;99355.63;;;0.53;100.00
7407;BME280;3745;56.964;24.128;2023-02-19T04:07:42;99525.19;;;1.46;100.00
7407;BME280;3745;56.964;24.128;2023-02-19T04:10:10;99601.44;;;1.96;100.00
7407;BME280;3745;56.964;24.128;2023-02-19T04:12:45;99332.50;;;0.29;100.00
7407;BME280;3745;56.964;24.128;2023-02-19T04:15:16;99526.66;;;1.39;100.00
7407;BME280;3745;56.964;24.128;2023-02-19T04:18:07;99548.75;;;1.55;100.00
7407;BME280;3745;56.964;24.128;2023-02-19T04:20:39;99563.16;;;1.66;100.00
7407;BME280;3745;56.964;24.128;2023-02-19T04:23:06;99542.78;;;1.50;100.00
7407;BME280;3745;56.964;24.128;2023-02-19T04:25:34;99524.91;;;1.35;100.00
7407;BME280;3745;56.964;24.128;2023-02-19T04:28:06;99575.72;;;1.69;100.00
7407;BME280;3745;56.964;24.128;2023-02-19T04:30:32;99359.09;;;0.30;100.00
7407;BME280;3745;56.964;24.128;2023-02-19T04:32:58;99606.94;;;1.86;100.00
7407;BME280;3745;56.964;24.128;2023-02-19T04:35:27;99345.19;;;0.37;100.00
7407;BME280;3745;56.964;24.128;2023-02-19T04:37:52;99400.19;;;0.73;100.00
7407;BME280;3745;56.964;24.128;2023-02-19T04:40:18;99497.41;;;1.04;100.00
7407;BME280;3745;56.964;24.128;2023-02-19T04:42:44;99607.66;;;1.82;100.00
7407;BME280;3745;56.964;24.128;2023-02-19T04:45:09;99624.50;;;1.89;100.00
7407;BME280;3745;56.964;24.128;2023-02-19T04:47:35;99572.13;;;1.60;100.00
7407;BME280;3745;56.964;24.128;2023-02-19T04:50:01;99364.44;;;0.42;100.00
7407;BME280;3745;56.964;24.128;2023-02-19T04:52:26;99434.94;;;0.70;100.00
7407;BME280;3745;56.964;24.128;2023-02-19T04:54:52;99527.91;;;1.25;100.00
7407;BME280;3745;56.964;24.128;2023-02-19T04:57:20;99477.38;;;1.01;100.00
7407;BME280;3745;56.964;24.128;2023-02-19T04:59:46;99627.00;;;1.89;100.00
7407;BME280;3745;56.964;24.128;2023-02-19T05:02:11;99624.31;;;1.83;100.00
7407;BME280;3745;56.964;24.128;2023-02-19T05:04:37;99553.88;;;1.32;100.00
7407;BME280;3745;56.964;24.128;2023-02-19T05:07:03;99584.59;;;1.60;100.00
7407;BME280;3745;56.964;24.128;2023-02-19T05:09:28;99575.88;;;1.46;100.00
7407;BME280;3745;56.964;24.128;2023-02-19T05:11:54;99543.66;;;1.24;100.00
7407;BME280;3745;56.964;24.128;2023-02-19T05:14:19;99594.38;;;1.53;100.00
7407;BME280;3745;56.964;24.128;2023-02-19T05:16:45;99622.00;;;1.60;100.00
7407;BME280;3745;56.964;24.128;2023-02-19T05:19:11;99481.53;;;0.74;100.00
7407;BME280;3745;56.964;24.128;2023-02-19T05:21:37;99601.69;;;1.48;100.00
7407;BME280;3745;56.964;24.128;2023-02-19T05:24:05;99503.41;;;0.84;100.00
7407;BME280;3745;56.964;24.128;2023-02-19T05:26:30;99576.75;;;1.20;100.00
7407;BME280;3745;56.964;24.128;2023-02-19T05:28:56;99575.94;;;1.21;100.00
7407;BME280;3745;56.964;24.128;2023-02-19T05:31:22;99564.19;;;1.17;100.00
7407;BME280;3745;56.964;24.128;2023-02-19T05:33:49;99511.41;;;0.74;100.00
7407;BME280;3745;56.964;24.128;2023-02-19T05:36:19;99579.41;;;1.26;100.00
7407;BME280;3745;56.964;24.128;2023-02-19T05:38:52;99506.72;;;0.83;100.00
7407;BME280;3745;56.964;24.128;2023-02-19T05:41:26;99422.06;;;0.29;100.00
7407;BME280;3745;56.964;24.128;2023-02-19T05:43:52;99655.50;;;1.69;100.00
7407;BME280;3745;56.964;24.128;2023-02-19T05:46:24;99652.09;;;1.67;100.00
7407;BME280;3745;56.964;24.128;2023-02-19T05:48:54;99568.78;;;1.05;100.00
7407;BME280;3745;56.964;24.128;2023-02-19T05:51:22;99674.69;;;1.71;100.00
7407;BME280;3745;56.964;24.128;2023-02-19T05:53:48;99681.81;;;1.60;100.00
7407;BME280;3745;56.964;24.128;2023-02-19T05:56:33;99665.56;;;1.72;100.00
7407;BME280;3745;56.964;24.128;2023-02-19T05:59:02;99496.28;;;0.68;100.00
7407;BME280;3745;56.964;24.128;2023-02-19T06:01:32;99670.56;;;1.72;100.00
7407;BME280;3745;56.964;24.128;2023-02-19T06:03:59;99571.34;;;1.06;100.00
7407;BME280;3745;56.964;24.128;2023-02-19T06:06:25;99644.06;;;1.48;100.00
7407;BME280;3745;56.964;24.128;2023-02-19T06:08:53;99458.78;;;0.36;100.00
7407;BME280;3745;56.964;24.128;2023-02-19T06:11:19;99582.34;;;1.13;100.00
7407;BME280;3745;56.964;24.128;2023-02-19T06:13:48;99677.78;;;1.64;100.00
7407;BME280;3745;56.964;24.128;2023-02-19T06:16:15;99667.06;;;1.67;100.00
7407;BME280;3745;56.964;24.128;2023-02-19T06:18:42;99680.34;;;1.66;100.00
7407;BME280;3745;56.964;24.128;2023-02-19T06:21:10;99513.63;;;0.66;100.00
7407;BME280;3745;56.964;24.128;2023-02-19T06:23:38;99567.97;;;1.04;100.00
7407;BME280;3745;56.964;24.128;2023-02-19T06:26:06;99392.81;;;-0.03;100.00
7407;BME280;3745;56.964;24.128;2023-02-19T06:28:32;99492.59;;;0.57;100.00
7407;BME280;3745;56.964;24.128;2023-02-19T06:30:58;99572.19;;;1.07;100.00
7407;BME280;3745;56.964;24.128;2023-02-19T06:33:25;99570.50;;;1.06;100.00
7407;BME280;3745;56.964;24.128;2023-02-19T06:35:52;99585.81;;;1.18;100.00
7407;BME280;3745;56.964;24.128;2023-02-19T06:38:20;99671.22;;;1.66;100.00
7407;BME280;3745;56.964;24.128;2023-02-19T06:40:45;99467.13;;;0.38;100.00
7407;BME280;3745;56.964;24.128;2023-02-19T06:43:14;99508.66;;;0.66;100.00
7407;BME280;3745;56.964;24.128;2023-02-19T06:45:40;99534.78;;;0.79;100.00
7407;BME280;3745;56.964;24.128;2023-02-19T06:48:05;99666.69;;;1.54;100.00
7407;BME280;3745;56.964;24.128;2023-02-19T06:50:31;99665.19;;;1.59;100.00
7407;BME280;3745;56.964;24.128;2023-02-19T06:52:56;99670.19;;;1.59;100.00
7407;BME280;3745;56.964;24.128;2023-02-19T06:55:22;99654.84;;;1.47;100.00
7407;BME280;3745;56.964;24.128;2023-02-19T06:57:47;99668.28;;;1.52;100.00
7407;BME280;3745;56.964;24.128;2023-02-19T07:00:13;99686.72;;;1.57;100.00
7407;BME280;3745;56.964;24.128;2023-02-19T07:02:39;99685.03;;;1.56;100.00
7407;BME280;3745;56.964;24.128;2023-02-19T07:05:04;99682.66;;;1.59;100.00
7407;BME280;3745;56.964;24.128;2023-02-19T07:07:30;99689.50;;;1.67;100.00
7407;BME280;3745;56.964;24.128;2023-02-19T07:09:56;99680.94;;;1.58;100.00
7407;BME280;3745;56.964;24.128;2023-02-19T07:12:21;99685.31;;;1.66;100.00
7407;BME280;3745;56.964;24.128;2023-02-19T07:14:47;99676.84;;;1.60;100.00
7407;BME280;3745;56.964;24.128;2023-02-19T07:17:12;99693.59;;;1.64;100.00
7407;BME280;3745;56.964;24.128;2023-02-19T07:19:38;99588.53;;;0.99;100.00
7407;BME280;3745;56.964;24.128;2023-02-19T07:22:03;99646.00;;;1.30;100.00
7407;BME280;3745;56.964;24.128;2023-02-19T07:24:29;99669.63;;;1.41;100.00
7407;BME280;3745;56.964;24.128;2023-02-19T07:26:54;99673.09;;;1.46;100.00
7407;BME280;3745;56.964;24.128;2023-02-19T07:29:20;99671.38;;;1.45;100.00
7407;BME280;3745;56.964;24.128;2023-02-19T07:31:46;99640.91;;;1.27;100.00
7407;BME280;3745;56.964;24.128;2023-02-19T07:34:11;99578.19;;;0.87;100.00
7407;BME280;3745;56.964;24.128;2023-02-19T07:36:37;99563.44;;;0.93;100.00
7407;BME280;3745;56.964;24.128;2023-02-19T07:39:02;99695.31;;;1.66;100.00
7407;BME280;3745;56.964;24.128;2023-02-19T07:41:28;99705.56;;;1.75;100.00
7407;BME280;3745;56.964;24.128;2023-02-19T07:43:54;99724.25;;;1.89;100.00
7407;BME280;3745;56.964;24.128;2023-02-19T07:46:20;99711.78;;;1.89;100.00
7407;BME280;3745;56.964;24.128;2023-02-19T07:48:46;99671.66;;;1.54;100.00
7407;BME280;3745;56.964;24.128;2023-02-19T07:51:14;99597.38;;;1.16;100.00
7407;BME280;3745;56.964;24.128;2023-02-19T07:53:47;99706.72;;;1.86;100.00
7407;BME280;3745;56.964;24.128;2023-02-19T07:56:14;99621.25;;;1.36;100.00
7407;BME280;3745;56.964;24.128;2023-02-19T07:58:41;99521.34;;;0.74;100.00
7407;BME280;3745;56.964;24.128;2023-02-19T08:01:13;99556.88;;;0.95;100.00
7407;BME280;3745;56.964;24.128;2023-02-19T08:03:40;99712.88;;;1.97;100.00
7407;BME280;3745;56.964;24.128;2023-02-19T08:08:53;99717.03;;;1.96;100.00
7407;BME280;3745;56.964;24.128;2023-02-19T08:11:19;99592.50;;;1.19;100.00
7407;BME280;3745;56.964;24.128;2023-02-19T08:14:06;99690.94;;;1.87;100.00
7407;BME280;3745;56.964;24.128;2023-02-19T08:16:34;99724.91;;;2.10;100.00
7407;BME280;3745;56.964;24.128;2023-02-19T08:19:00;99714.81;;;2.07;100.00
7407;BME280;3745;56.964;24.128;2023-02-19T08:21:26;99551.34;;;1.03;100.00
7407;BME280;3745;56.964;24.128;2023-02-19T08:23:54;99601.22;;;1.33;100.00
7407;BME280;3745;56.964;24.128;2023-02-19T08:26:20;99732.56;;;2.16;100.00
7407;BME280;3745;56.964;24.128;2023-02-19T08:28:47;99714.91;;;2.10;100.00
7407;BME280;3745;56.964;24.128;2023-02-19T08:31:16;99641.16;;;1.61;100.00
7407;BME280;3745;56.964;24.128;2023-02-19T08:33:41;99720.09;;;2.16;100.00
7407;BME280;3745;56.964;24.128;2023-02-19T08:36:08;99523.78;;;0.99;100.00
7407;BME280;3745;56.964;24.128;2023-02-19T08:38:35;99537.16;;;1.01;100.00
7407;BME280;3745;56.964;24.128;2023-02-19T08:41:11;99518.72;;;0.96;100.00
7407;BME280;3745;56.964;24.128;2023-02-19T08:43:40;99631.59;;;1.75;100.00
7407;BME280;3745;56.964;24.128;2023-02-19T08:46:07;99738.72;;;2.27;100.00
7407;BME280;3745;56.964;24.128;2023-02-19T08:48:35;99740.41;;;2.28;100.00
7407;BME280;3745;56.964;24.128;2023-02-19T08:51:05;99733.00;;;2.31;100.00
7407;BME280;3745;56.964;24.128;2023-02-19T08:53:34;99549.25;;;1.17;100.00
7407;BME280;3745;56.964;24.128;2023-02-19T08:56:14;99610.19;;;1.53;100.00
7407;BME280;3745;56.964;24.128;2023-02-19T08:58:40;99485.19;;;0.85;100.00
7407;BME280;3745;56.964;24.128;2023-02-19T09:01:13;99653.00;;;1.69;100.00
7407;BME280;3745;56.964;24.128;2023-02-19T09:03:39;99622.72;;;1.56;100.00
7407;BME280;3745;56.964;24.128;2023-02-19T09:06:06;99723.59;;;2.21;100.00
7407;BME280;3745;56.964;24.128;2023-02-19T09:08:31;99643.06;;;1.70;100.00
7407;BME280;3745;56.964;24.128;2023-02-19T09:11:15;99731.84;;;2.20;100.00
7407;BME280;3745;56.964;24.128;2023-02-19T09:13:41;99495.22;;;0.88;100.00
7407;BME280;3745;56.964;24.128;2023-02-19T09:16:07;99473.88;;;0.68;100.00
7407;BME280;3745;56.964;24.128;2023-02-19T09:18:36;99604.72;;;1.38;100.00
7407;BME280;3745;56.964;24.128;2023-02-19T09:21:03;99762.78;;;2.25;100.00
7407;BME280;3745;56.964;24.128;2023-02-19T09:23:32;99601.97;;;1.29;100.00
7407;BME280;3745;56.964;24.128;2023-02-19T09:25:59;99523.50;;;0.90;100.00
7407;BME280;3745;56.964;24.128;2023-02-19T09:28:26;99557.25;;;1.07;100.00
7407;BME280;3745;56.964;24.128;2023-02-19T09:30:52;99582.72;;;1.25;100.00
7407;BME280;3745;56.964;24.128;2023-02-19T09:33:18;99491.06;;;0.62;100.00
7407;BME280;3745;56.964;24.128;2023-02-19T09:35:44;99748.75;;;2.29;100.00
7407;BME280;3745;56.964;24.128;2023-02-19T09:38:09;99724.97;;;2.13;100.00
7407;BME280;3745;56.964;24.128;2023-02-19T09:40:38;99648.19;;;1.75;100.00
7407;BME280;3745;56.964;24.128;2023-02-19T09:43:19;99720.59;;;2.34;100.00
7407;BME280;3745;56.964;24.128;2023-02-19T09:45:46;99752.06;;;2.57;100.00
7407;BME280;3745;56.964;24.128;2023-02-19T09:48:15;99759.41;;;2.51;100.00
7407;BME280;3745;56.964;24.128;2023-02-19T09:50:46;99756.00;;;2.49;100.00
7407;BME280;3745;56.964;24.128;2023-02-19T09:53:30;99694.97;;;2.10;100.00
7407;BME280;3745;56.964;24.128;2023-02-19T09:56:01;99656.13;;;1.90;100.00
7407;BME280;3745;56.964;24.128;2023-02-19T09:58:33;99750.75;;;2.40;100.00
7407;BME280;3745;56.964;24.128;2023-02-19T10:01:02;99718.50;;;2.18;100.00
7407;BME280;3745;56.964;24.128;2023-02-19T10:03:32;99751.59;;;2.41;100.00
7407;BME280;3745;56.964;24.128;2023-02-19T10:06:04;99748.88;;;2.33;100.00
7407;BME280;3745;56.964;24.128;2023-02-19T10:08:33;99768.13;;;2.37;100.00
7407;BME280;3745;56.964;24.128;2023-02-19T10:11:01;99759.22;;;2.45;100.00
7407;BME280;3745;56.964;24.128;2023-02-19T10:13:34;99729.28;;;2.17;100.00
7407;BME280;3745;56.964;24.128;2023-02-19T10:16:03;99779.00;;;2.39;100.00
7407;BME280;3745;56.964;24.128;2023-02-19T10:18:43;99775.97;;;2.49;100.00
7407;BME280;3745;56.964;24.128;2023-02-19T10:21:13;99682.47;;;1.82;100.00
7407;BME280;3745;56.964;24.128;2023-02-19T10:23:43;99774.69;;;2.34;100.00
7407;BME280;3745;56.964;24.128;2023-02-19T10:26:08;99686.31;;;1.71;100.00
7407;BME280;3745;56.964;24.128;2023-02-19T10:29:20;99789.84;;;2.13;100.00
7407;BME280;3745;56.964;24.128;2023-02-19T10:31:35;99700.47;;;1.72;100.00
7407;BME280;3745;56.964;24.128;2023-02-19T10:34:19;99753.16;;;2.09;100.00
7407;BME280;3745;56.964;24.128;2023-02-19T10:36:52;99752.31;;;2.08;100.00
7407;BME280;3745;56.964;24.128;2023-02-19T10:41:50;99738.28;;;2.12;100.00
7407;BME280;3745;56.964;24.128;2023-02-19T10:44:41;99770.34;;;2.28;100.00
7407;BME280;3745;56.964;24.128;2023-02-19T10:47:37;99754.56;;;2.28;100.00
7407;BME280;3745;56.964;24.128;2023-02-19T10:50:31;99724.25;;;1.89;100.00
7407;BME280;3745;56.964;24.128;2023-02-19T10:53:01;99729.88;;;2.10;100.00
7407;BME280;3745;56.964;24.128;2023-02-19T10:55:30;99777.13;;;2.32;100.00
7407;BME280;3745;56.964;24.128;2023-02-19T10:57:57;99726.34;;;2.02;100.00
7407;BME280;3745;56.964;24.128;2023-02-19T11:00:39;99788.81;;;2.33;100.00
7407;BME280;3745;56.964;24.128;2023-02-19T11:03:21;99777.84;;;2.28;100.00
7407;BME280;3745;56.964;24.128;2023-02-19T11:05:56;99760.00;;;2.16;100.00
7407;BME280;3745;56.964;24.128;2023-02-19T11:08:23;99742.25;;;2.05;100.00
7407;BME280;3745;56.964;24.128;2023-02-19T11:10:49;99666.31;;;1.69;100.00
7407;BME280;3745;56.964;24.128;2023-02-19T11:13:29;99731.50;;;2.08;100.00
7407;BME280;3745;56.964;24.128;2023-02-19T11:15:57;99790.59;;;2.37;100.00
7407;BME280;3745;56.964;24.128;2023-02-19T11:18:32;99802.38;;;2.41;100.00
7407;BME280;3745;56.964;24.128;2023-02-19T11:21:06;99772.44;;;2.14;100.00
7407;BME280;3745;56.964;24.128;2023-02-19T11:23:37;99803.16;;;2.12;100.00
7407;BME280;3745;56.964;24.128;2023-02-19T11:26:17;99783.84;;;1.80;100.00
7407;BME280;3745;56.964;24.128;2023-02-19T11:28:43;99715.84;;;1.33;100.00
7407;BME280;3745;56.964;24.128;2023-02-19T11:31:24;99795.50;;;1.81;100.00
7407;BME280;3745;56.964;24.128;2023-02-19T11:33:58;99821.94;;;1.76;100.00
7407;BME280;3745;56.964;24.128;2023-02-19T11:36:35;99557.78;;;0.21;100.00
7407;BME280;3745;56.964;24.128;2023-02-19T11:53:21;99835.72;;;2.16;100.00
7407;BME280;3745;56.964;24.128;2023-02-19T11:56:27;99834.78;;;2.13;100.00
7407;BME280;3745;56.964;24.128;2023-02-19T11:59:07;99841.47;;;2.14;100.00
7407;BME280;3745;56.964;24.128;2023-02-19T12:08:01;99791.72;;;1.67;100.00
7407;BME280;3745;56.964;24.128;2023-02-19T12:10:47;99825.22;;;2.00;100.00
7407;BME280;3745;56.964;24.128;2023-02-19T12:13:46;99824.31;;;1.98;100.00
7407;BME280;3745;56.964;24.128;2023-02-19T12:16:40;99849.66;;;2.10;100.00
7407;BME280;3745;56.964;24.128;2023-02-19T12:19:23;99784.59;;;1.77;100.00
7407;BME280;3745;56.964;24.128;2023-02-19T12:22:20;99820.94;;;1.96;100.00
7407;BME280;3745;56.964;24.128;2023-02-19T12:25:18;99837.50;;;1.94;100.00
7407;BME280;3745;56.964;24.128;2023-02-19T12:33:24;99849.66;;;1.59;100.00
7407;BME280;3745;56.964;24.128;2023-02-19T12:43:52;99859.09;;;1.21;100.00
7407;BME280;3745;56.964;24.128;2023-02-19T12:48:58;99807.47;;;0.93;100.00
7407;BME280;3745;56.964;24.128;2023-02-19T12:51:54;99823.38;;;1.20;100.00
7407;BME280;3745;56.964;24.128;2023-02-19T12:54:34;99866.00;;;1.51;100.00
7407;BME280;3745;56.964;24.128;2023-02-19T12:57:11;99792.00;;;1.25;100.00
7407;BME280;3745;56.964;24.128;2023-02-19T13:02:09;99848.09;;;1.87;100.00
7407;BME280;3745;56.964;24.128;2023-02-19T13:07:17;99803.69;;;1.77;100.00
7407;BME280;3745;56.964;24.128;2023-02-19T13:09:50;99801.97;;;1.76;100.00
7407;BME280;3745;56.964;24.128;2023-02-19T13:12:23;99843.50;;;2.00;100.00
7407;BME280;3745;56.964;24.128;2023-02-19T13:15:03;99877.72;;;2.03;100.00
7407;BME280;3745;56.964;24.128;2023-02-19T13:23:16;99872.09;;;1.85;100.00
7407;BME280;3745;56.964;24.128;2023-02-19T13:29:23;99878.50;;;1.77;100.00
7407;BME280;3745;56.964;24.128;2023-02-19T13:35:42;99845.31;;;1.30;100.00
7407;BME280;3745;56.964;24.128;2023-02-19T13:38:18;99850.00;;;1.21;100.00
7407;BME280;3745;56.964;24.128;2023-02-19T13:40:57;99866.22;;;1.34;100.00
7407;BME280;3745;56.964;24.128;2023-02-19T13:45:56;99893.69;;;1.35;100.00
7407;BME280;3745;56.964;24.128;2023-02-19T13:50:48;99793.81;;;0.82;100.00
7407;BME280;3745;56.964;24.128;2023-02-19T13:56:47;99865.78;;;1.45;100.00
7407;BME280;3745;56.964;24.128;2023-02-19T13:59:35;99899.19;;;1.74;100.00
7407;BME280;3745;56.964;24.128;2023-02-19T14:04:42;99920.41;;;1.87;100.00
7407;BME280;3745;56.964;24.128;2023-02-19T14:14:55;99819.03;;;1.38;100.00
7407;BME280;3745;56.964;24.128;2023-02-19T14:17:43;99912.22;;;1.91;100.00
7407;BME280;3745;56.964;24.128;2023-02-19T14:28:01;99915.63;;;1.93;100.00
7407;BME280;3745;56.964;24.128;2023-02-19T14:30:30;99738.91;;;0.79;100.00
7407;BME280;3745;56.964;24.128;2023-02-19T14:32:57;99728.38;;;0.86;100.00
7407;BME280;3745;56.964;24.128;2023-02-19T14:35:33;99829.13;;;1.41;100.00
7407;BME280;3745;56.964;24.128;2023-02-19T14:38:01;99874.91;;;1.69;100.00
7407;BME280;3745;56.964;24.128;2023-02-19T14:40:41;99915.53;;;1.90;100.00
7407;BME280;3745;56.964;24.128;2023-02-19T14:43:16;99779.06;;;1.12;100.00
7407;BME280;3745;56.964;24.128;2023-02-19T14:45:48;99840.09;;;1.48;100.00
7407;BME280;3745;56.964;24.128;2023-02-19T14:48:25;99914.84;;;1.94;100.00
7407;BME280;3745;56.964;24.128;2023-02-19T14:50:58;99884.97;;;1.72;100.00
7407;BME280;3745;56.964;24.128;2023-02-19T14:53:26;99916.50;;;1.95;100.00
7407;BME280;3745;56.964;24.128;2023-02-19T14:55:54;99928.97;;;1.95;100.00
7407;BME280;3745;56.964;24.128;2023-02-19T14:58:28;99940.56;;;1.93;100.00
7407;BME280;3745;56.964;24.128;2023-02-19T15:00:55;99905.25;;;1.81;100.00
7407;BME280;3745;56.964;24.128;2023-02-19T15:03:34;99940.47;;;1.90;100.00
7407;BME280;3745;56.964;24.128;2023-02-19T15:06:26;99920.09;;;1.78;100.00
7407;BME280;3745;56.964;24.128;2023-02-19T15:08:57;99945.34;;;1.87;100.00
7407;BME280;3745;56.964;24.128;2023-02-19T15:11:26;99869.97;;;1.46;100.00
7407;BME280;3745;56.964;24.128;2023-02-19T15:13:56;99924.53;;;1.86;100.00
7407;BME280;3745;56.964;24.128;2023-02-19T15:16:23;99937.78;;;1.85;100.00
7407;BME280;3745;56.964;24.128;2023-02-19T15:18:50;99919.91;;;1.72;100.00
7407;BME280;3745;56.964;24.128;2023-02-19T15:21:29;99945.44;;;1.90;100.00
7407;BME280;3745;56.964;24.128;2023-02-19T15:23:59;99914.91;;;1.72;100.00
7407;BME280;3745;56.964;24.128;2023-02-19T15:26:47;99953.72;;;1.89;100.00
7407;BME280;3745;56.964;24.128;2023-02-19T15:29:18;99899.44;;;1.56;100.00